sensor_id;sensor_type;location;lat;lon;timestamp;temperature;humidity
24836;DHT22;12915;57.650;12.044;2023-07-08T00:02:13;19.20;99.90
24836;DHT22;12915;57.650;12.044;2023-07-08T00:04:39;19.20;99.90
24836;DHT22;12915;57.650;12.044;2023-07-08T00:07:11;19.20;99.90
24836;DHT22;12915;57.650;12.044;2023-07-08T00:09:40;19.20;99.90
24836;DHT22;12915;57.650;12.044;2023-07-08T00:12:12;19.20;99.90
24836;DHT22;12915;57.650;12.044;2023-07-08T00:14:38;19.10;99.90
24836;DHT22;12915;57.650;12.044;2023-07-08T00:17:10;19.10;99.90
24836;DHT22;12915;57.650;12.044;2023-07-08T00:19:38;19.10;99.90
24836;DHT22;12915;57.650;12.044;2023-07-08T00:22:13;19.00;99.90
24836;DHT22;12915;57.650;12.044;2023-07-08T00:24:42;18.90;99.90
24836;DHT22;12915;57.650;12.044;2023-07-08T00:27:11;18.80;99.90
24836;DHT22;12915;57.650;12.044;2023-07-08T00:29:41;18.80;99.90
24836;DHT22;12915;57.650;12.044;2023-07-08T00:32:15;18.70;99.90
24836;DHT22;12915;57.650;12.044;2023-07-08T00:34:41;18.70;99.90
24836;DHT22;12915;57.650;12.044;2023-07-08T00:37:11;18.80;99.90
24836;DHT22;12915;57.650;12.044;2023-07-08T00:39:37;18.80;99.90
24836;DHT22;12915;57.650;12.044;2023-07-08T00:42:17;18.90;99.90
24836;DHT22;12915;57.650;12.044;2023-07-08T00:44:43;19.00;99.90
24836;DHT22;12915;57.650;12.044;2023-07-08T00:47:11;19.00;99.90
24836;DHT22;12915;57.650;12.044;2023-07-08T00:49:47;19.10;99.90
24836;DHT22;12915;57.650;12.044;2023-07-08T00:52:29;19.20;99.90
24836;DHT22;12915;57.650;12.044;2023-07-08T00:55:06;19.20;99.90
24836;DHT22;12915;57.650;12.044;2023-07-08T00:57:41;19.20;99.90
24836;DHT22;12915;57.650;12.044;2023-07-08T01:00:12;19.20;99.90
24836;DHT22;12915;57.650;12.044;2023-07-08T01:02:54;19.20;99.90
24836;DHT22;12915;57.650;12.044;2023-07-08T01:05:24;19.10;99.90
24836;DHT22;12915;57.650;12.044;2023-07-08T01:07:59;19.20;99.90
24836;DHT22;12915;57.650;12.044;2023-07-08T01:10:30;19.20;99.90
24836;DHT22;12915;57.650;12.044;2023-07-08T01:13:00;19.20;99.90
24836;DHT22;12915;57.650;12.044;2023-07-08T01:15:35;19.10;99.90
24836;DHT22;12915;57.650;12.044;2023-07-08T01:18:03;19.10;99.90
24836;DHT22;12915;57.650;12.044;2023-07-08T01:20:28;19.00;99.90
24836;DHT22;12915;57.650;12.044;2023-07-08T01:22:54;19.00;99.90
24836;DHT22;12915;57.650;12.044;2023-07-08T01:25:20;19.00;99.90
24836;DHT22;12915;57.650;12.044;2023-07-08T01:27:49;18.90;99.90
24836;DHT22;12915;57.650;12.044;2023-07-08T01:30:17;18.90;99.90
24836;DHT22;12915;57.650;12.044;2023-07-08T01:32:49;18.90;99.90
24836;DHT22;12915;57.650;12.044;2023-07-08T01:35:16;18.90;99.90
24836;DHT22;12915;57.650;12.044;2023-07-08T01:37:47;18.90;99.90
24836;DHT22;12915;57.650;12.044;2023-07-08T01:42:46;18.80;99.90
24836;DHT22;12915;57.650;12.044;2023-07-08T01:45:15;18.70;99.90
24836;DHT22;12915;57.650;12.044;2023-07-08T01:47:48;18.70;99.90
24836;DHT22;12915;57.650;12.044;2023-07-08T01:50:16;18.60;99.90
24836;DHT22;12915;57.650;12.044;2023-07-08T01:52:42;18.60;99.90
24836;DHT22;12915;57.650;12.044;2023-07-08T01:55:08;18.50;99.90
24836;DHT22;12915;57.650;12.044;2023-07-08T01:57:34;18.50;99.90
24836;DHT22;12915;57.650;12.044;2023-07-08T01:59:59;18.40;99.90
24836;DHT22;12915;57.650;12.044;2023-07-08T02:02:25;18.40;99.90
24836;DHT22;12915;57.650;12.044;2023-07-08T02:04:51;18.40;99.90
24836;DHT22;12915;57.650;12.044;2023-07-08T02:07:17;18.30;99.90
24836;DHT22;12915;57.650;12.044;2023-07-08T02:09:43;18.30;99.90
24836;DHT22;12915;57.650;12.044;2023-07-08T02:12:09;18.40;99.90
24836;DHT22;12915;57.650;12.044;2023-07-08T02:14:34;18.40;99.90
24836;DHT22;12915;57.650;12.044;2023-07-08T02:17:00;18.50;99.90
24836;DHT22;12915;57.650;12.044;2023-07-08T02:19:27;18.50;99.90
24836;DHT22;12915;57.650;12.044;2023-07-08T02:21:53;18.60;99.90
24836;DHT22;12915;57.650;12.044;2023-07-08T02:24:19;18.50;99.90
24836;DHT22;12915;57.650;12.044;2023-07-08T02:26:44;18.60;99.90
24836;DHT22;12915;57.650;12.044;2023-07-08T02:29:12;18.50;99.90
24836;DHT22;12915;57.650;12.044;2023-07-08T02:31:38;18.50;99.90
24836;DHT22;12915;57.650;12.044;2023-07-08T02:34:04;18.50;99.90
24836;DHT22;12915;57.650;12.044;2023-07-08T02:36:30;18.60;99.90
24836;DHT22;12915;57.650;12.044;2023-07-08T02:38:56;18.70;99.90
24836;DHT22;12915;57.650;12.044;2023-07-08T02:41:21;18.70;99.90
24836;DHT22;12915;57.650;12.044;2023-07-08T02:43:47;18.60;99.90
24836;DHT22;12915;57.650;12.044;2023-07-08T02:46:13;18.50;99.90
24836;DHT22;12915;57.650;12.044;2023-07-08T02:48:39;18.50;99.90
24836;DHT22;12915;57.650;12.044;2023-07-08T02:51:05;18.50;99.90
24836;DHT22;12915;57.650;12.044;2023-07-08T02:53:31;18.50;99.90
24836;DHT22;12915;57.650;12.044;2023-07-08T02:55:57;18.40;99.90
24836;DHT22;12915;57.650;12.044;2023-07-08T02:58:23;18.30;99.90
24836;DHT22;12915;57.650;12.044;2023-07-08T03:00:53;18.40;99.90
24836;DHT22;12915;57.650;12.044;2023-07-08T03:03:19;18.30;99.90
24836;DHT22;12915;57.650;12.044;2023-07-08T03:05:54;18.40;99.90
24836;DHT22;12915;57.650;12.044;2023-07-08T03:08:20;18.40;99.90
24836;DHT22;12915;57.650;12.044;2023-07-08T03:10:58;18.40;99.90
24836;DHT22;12915;57.650;12.044;2023-07-08T03:13:25;18.40;99.90
24836;DHT22;12915;57.650;12.044;2023-07-08T03:15:51;18.40;99.90
24836;DHT22;12915;57.650;12.044;2023-07-08T03:18:17;18.40;99.90
24836;DHT22;12915;57.650;12.044;2023-07-08T03:20:42;18.30;99.90
24836;DHT22;12915;57.650;12.044;2023-07-08T03:23:12;18.30;99.90
24836;DHT22;12915;57.650;12.044;2023-07-08T03:25:38;18.30;99.90
24836;DHT22;12915;57.650;12.044;2023-07-08T03:28:05;18.30;99.90
24836;DHT22;12915;57.650;12.044;2023-07-08T03:30:39;18.20;99.90
24836;DHT22;12915;57.650;12.044;2023-07-08T03:33:05;18.10;99.90
24836;DHT22;12915;57.650;12.044;2023-07-08T03:35:31;18.20;99.90
24836;DHT22;12915;57.650;12.044;2023-07-08T03:37:56;18.30;99.90
24836;DHT22;12915;57.650;12.044;2023-07-08T03:40:22;18.30;99.90
24836;DHT22;12915;57.650;12.044;2023-07-08T03:42:48;18.30;99.90
24836;DHT22;12915;57.650;12.044;2023-07-08T03:45:13;18.30;99.90
24836;DHT22;12915;57.650;12.044;2023-07-08T03:47:39;18.40;99.90
24836;DHT22;12915;57.650;12.044;2023-07-08T03:50:05;18.20;99.90
24836;DHT22;12915;57.650;12.044;2023-07-08T03:52:32;18.10;99.90
24836;DHT22;12915;57.650;12.044;2023-07-08T03:54:58;17.90;99.90
24836;DHT22;12915;57.650;12.044;2023-07-08T03:57:23;17.70;99.90
24836;DHT22;12915;57.650;12.044;2023-07-08T03:59:49;17.80;99.90
24836;DHT22;12915;57.650;12.044;2023-07-08T04:02:15;17.90;99.90
24836;DHT22;12915;57.650;12.044;2023-07-08T04:04:40;18.00;99.90
24836;DHT22;12915;57.650;12.044;2023-07-08T04:07:06;18.00;99.90
24836;DHT22;12915;57.650;12.044;2023-07-08T04:09:32;18.10;99.90
24836;DHT22;12915;57.650;12.044;2023-07-08T04:11:58;18.20;99.90
24836;DHT22;12915;57.650;12.044;2023-07-08T04:14:25;18.10;99.90
24836;DHT22;12915;57.650;12.044;2023-07-08T04:16:54;18.10;99.90
24836;DHT22;12915;57.650;12.044;2023-07-08T04:19:22;18.20;99.90
24836;DHT22;12915;57.650;12.044;2023-07-08T04:21:49;18.20;99.90
24836;DHT22;12915;57.650;12.044;2023-07-08T04:24:16;18.10;99.90
24836;DHT22;12915;57.650;12.044;2023-07-08T04:26:42;18.10;99.90
24836;DHT22;12915;57.650;12.044;2023-07-08T04:29:19;18.00;99.90
24836;DHT22;12915;57.650;12.044;2023-07-08T04:31:45;18.10;99.90
24836;DHT22;12915;57.650;12.044;2023-07-08T04:34:12;18.20;99.90
24836;DHT22;12915;57.650;12.044;2023-07-08T04:36:38;18.30;99.90
24836;DHT22;12915;57.650;12.044;2023-07-08T04:39:05;18.30;99.90
24836;DHT22;12915;57.650;12.044;2023-07-08T04:41:31;18.40;99.90
24836;DHT22;12915;57.650;12.044;2023-07-08T04:43:57;18.30;99.90
24836;DHT22;12915;57.650;12.044;2023-07-08T04:46:34;18.30;99.90
24836;DHT22;12915;57.650;12.044;2023-07-08T04:49:03;18.30;99.90
24836;DHT22;12915;57.650;12.044;2023-07-08T04:51:29;18.40;99.90
24836;DHT22;12915;57.650;12.044;2023-07-08T04:53:55;18.50;99.90
24836;DHT22;12915;57.650;12.044;2023-07-08T04:56:21;18.60;99.90
24836;DHT22;12915;57.650;12.044;2023-07-08T04:58:49;18.70;99.90
24836;DHT22;12915;57.650;12.044;2023-07-08T05:01:15;18.90;99.90
24836;DHT22;12915;57.650;12.044;2023-07-08T05:03:41;19.20;99.90
24836;DHT22;12915;57.650;12.044;2023-07-08T05:06:07;19.40;99.90
24836;DHT22;12915;57.650;12.044;2023-07-08T05:08:32;19.60;99.90
24836;DHT22;12915;57.650;12.044;2023-07-08T05:10:58;19.80;99.90
24836;DHT22;12915;57.650;12.044;2023-07-08T05:13:25;20.00;99.90
24836;DHT22;12915;57.650;12.044;2023-07-08T05:15:50;20.10;99.90
24836;DHT22;12915;57.650;12.044;2023-07-08T05:18:16;20.20;99.90
24836;DHT22;12915;57.650;12.044;2023-07-08T05:20:42;20.40;99.90
24836;DHT22;12915;57.650;12.044;2023-07-08T05:23:08;20.40;99.90
24836;DHT22;12915;57.650;12.044;2023-07-08T05:25:35;20.50;99.90
24836;DHT22;12915;57.650;12.044;2023-07-08T05:28:00;20.70;99.90
24836;DHT22;12915;57.650;12.044;2023-07-08T05:33:48;20.80;99.90
24836;DHT22;12915;57.650;12.044;2023-07-08T05:36:14;20.70;99.90
24836;DHT22;12915;57.650;12.044;2023-07-08T05:38:40;20.50;99.90
24836;DHT22;12915;57.650;12.044;2023-07-08T05:41:06;20.30;99.90
24836;DHT22;12915;57.650;12.044;2023-07-08T05:43:31;20.20;99.90
24836;DHT22;12915;57.650;12.044;2023-07-08T05:45:58;20.10;99.90
24836;DHT22;12915;57.650;12.044;2023-07-08T05:48:25;20.20;99.90
24836;DHT22;12915;57.650;12.044;2023-07-08T05:50:51;20.40;99.90
24836;DHT22;12915;57.650;12.044;2023-07-08T05:53:19;20.60;99.90
24836;DHT22;12915;57.650;12.044;2023-07-08T05:55:45;20.70;99.90
24836;DHT22;12915;57.650;12.044;2023-07-08T05:58:11;20.90;99.90
24836;DHT22;12915;57.650;12.044;2023-07-08T06:00:43;21.10;99.90
24836;DHT22;12915;57.650;12.044;2023-07-08T06:03:09;21.20;99.90
24836;DHT22;12915;57.650;12.044;2023-07-08T06:05:37;21.40;99.90
24836;DHT22;12915;57.650;12.044;2023-07-08T06:08:03;21.50;99.90
24836;DHT22;12915;57.650;12.044;2023-07-08T06:10:29;21.60;99.90
24836;DHT22;12915;57.650;12.044;2023-07-08T06:12:54;21.70;99.90
24836;DHT22;12915;57.650;12.044;2023-07-08T06:15:20;21.80;99.90
24836;DHT22;12915;57.650;12.044;2023-07-08T06:17:46;21.90;99.90
24836;DHT22;12915;57.650;12.044;2023-07-08T06:20:12;21.90;99.90
24836;DHT22;12915;57.650;12.044;2023-07-08T06:22:37;22.10;99.90
24836;DHT22;12915;57.650;12.044;2023-07-08T06:25:03;22.10;99.90
24836;DHT22;12915;57.650;12.044;2023-07-08T06:27:29;22.00;99.90
24836;DHT22;12915;57.650;12.044;2023-07-08T06:29:55;22.30;99.90
24836;DHT22;12915;57.650;12.044;2023-07-08T06:32:21;22.40;99.90
24836;DHT22;12915;57.650;12.044;2023-07-08T06:34:46;22.40;99.90
24836;DHT22;12915;57.650;12.044;2023-07-08T06:37:12;22.30;99.90
24836;DHT22;12915;57.650;12.044;2023-07-08T06:39:38;22.40;99.90
24836;DHT22;12915;57.650;12.044;2023-07-08T06:42:04;22.60;99.90
24836;DHT22;12915;57.650;12.044;2023-07-08T06:44:30;22.70;99.90
24836;DHT22;12915;57.650;12.044;2023-07-08T06:46:55;22.80;99.90
24836;DHT22;12915;57.650;12.044;2023-07-08T06:49:21;22.80;99.90
24836;DHT22;12915;57.650;12.044;2023-07-08T06:51:47;22.80;99.90
24836;DHT22;12915;57.650;12.044;2023-07-08T06:54:13;23.00;99.90
24836;DHT22;12915;57.650;12.044;2023-07-08T06:56:40;23.00;99.90
24836;DHT22;12915;57.650;12.044;2023-07-08T06:59:07;23.10;99.90
24836;DHT22;12915;57.650;12.044;2023-07-08T07:01:33;23.20;99.90
24836;DHT22;12915;57.650;12.044;2023-07-08T07:03:59;23.40;99.90
24836;DHT22;12915;57.650;12.044;2023-07-08T07:06:25;23.40;99.90
24836;DHT22;12915;57.650;12.044;2023-07-08T07:08:51;23.20;99.90
24836;DHT22;12915;57.650;12.044;2023-07-08T07:11:17;23.30;99.90
24836;DHT22;12915;57.650;12.044;2023-07-08T07:13:45;23.40;99.90
24836;DHT22;12915;57.650;12.044;2023-07-08T07:16:11;23.50;99.90
24836;DHT22;12915;57.650;12.044;2023-07-08T07:18:37;23.60;99.90
24836;DHT22;12915;57.650;12.044;2023-07-08T07:21:02;23.70;99.90
24836;DHT22;12915;57.650;12.044;2023-07-08T07:23:28;23.70;99.90
24836;DHT22;12915;57.650;12.044;2023-07-08T07:25:54;23.50;99.90
24836;DHT22;12915;57.650;12.044;2023-07-08T07:28:20;23.40;99.90
24836;DHT22;12915;57.650;12.044;2023-07-08T07:30:46;23.50;99.90
24836;DHT22;12915;57.650;12.044;2023-07-08T07:33:13;23.30;99.90
24836;DHT22;12915;57.650;12.044;2023-07-08T07:35:44;23.40;99.90
24836;DHT22;12915;57.650;12.044;2023-07-08T07:38:10;23.30;99.90
24836;DHT22;12915;57.650;12.044;2023-07-08T07:40:36;23.20;99.90
24836;DHT22;12915;57.650;12.044;2023-07-08T07:43:03;23.20;99.90
24836;DHT22;12915;57.650;12.044;2023-07-08T07:45:29;23.20;99.90
24836;DHT22;12915;57.650;12.044;2023-07-08T07:47:55;23.00;99.90
24836;DHT22;12915;57.650;12.044;2023-07-08T07:50:21;23.00;99.90
24836;DHT22;12915;57.650;12.044;2023-07-08T07:52:47;23.10;99.90
24836;DHT22;12915;57.650;12.044;2023-07-08T07:55:13;23.10;99.90
24836;DHT22;12915;57.650;12.044;2023-07-08T07:57:39;23.20;99.90
24836;DHT22;12915;57.650;12.044;2023-07-08T08:00:07;23.30;99.90
24836;DHT22;12915;57.650;12.044;2023-07-08T08:02:34;23.30;99.90
24836;DHT22;12915;57.650;12.044;2023-07-08T08:05:01;23.40;99.90
24836;DHT22;12915;57.650;12.044;2023-07-08T08:07:26;23.40;99.90
24836;DHT22;12915;57.650;12.044;2023-07-08T08:12:31;23.30;99.90
24836;DHT22;12915;57.650;12.044;2023-07-08T08:15:01;23.40;99.90
24836;DHT22;12915;57.650;12.044;2023-07-08T08:17:27;23.50;99.90
24836;DHT22;12915;57.650;12.044;2023-07-08T08:19:53;23.50;99.90
24836;DHT22;12915;57.650;12.044;2023-07-08T08:22:18;23.60;99.90
24836;DHT22;12915;57.650;12.044;2023-07-08T08:24:46;23.80;99.90
24836;DHT22;12915;57.650;12.044;2023-07-08T08:27:12;23.90;99.90
24836;DHT22;12915;57.650;12.044;2023-07-08T08:29:38;23.90;99.90
24836;DHT22;12915;57.650;12.044;2023-07-08T08:32:04;24.00;99.90
24836;DHT22;12915;57.650;12.044;2023-07-08T08:34:36;23.90;99.90
24836;DHT22;12915;57.650;12.044;2023-07-08T08:37:11;24.00;99.90
24836;DHT22;12915;57.650;12.044;2023-07-08T08:39:37;24.20;99.90
24836;DHT22;12915;57.650;12.044;2023-07-08T08:45:26;24.50;99.90
24836;DHT22;12915;57.650;12.044;2023-07-08T08:48:02;24.10;99.90
24836;DHT22;12915;57.650;12.044;2023-07-08T08:50:58;23.90;99.90
24836;DHT22;12915;57.650;12.044;2023-07-08T08:53:26;23.70;99.90
24836;DHT22;12915;57.650;12.044;2023-07-08T08:56:08;23.70;99.90
24836;DHT22;12915;57.650;12.044;2023-07-08T08:58:46;23.70;99.90
24836;DHT22;12915;57.650;12.044;2023-07-08T09:01:15;23.70;99.90
24836;DHT22;12915;57.650;12.044;2023-07-08T09:06:28;24.00;99.90
24836;DHT22;12915;57.650;12.044;2023-07-08T09:08:56;24.20;99.90
24836;DHT22;12915;57.650;12.044;2023-07-08T09:11:37;24.00;99.90
24836;DHT22;12915;57.650;12.044;2023-07-08T09:14:13;23.90;99.90
24836;DHT22;12915;57.650;12.044;2023-07-08T09:19:26;23.60;99.90
24836;DHT22;12915;57.650;12.044;2023-07-08T09:22:10;23.60;99.90
24836;DHT22;12915;57.650;12.044;2023-07-08T09:25:01;23.90;99.90
24836;DHT22;12915;57.650;12.044;2023-07-08T09:27:29;24.10;99.90
24836;DHT22;12915;57.650;12.044;2023-07-08T09:29:56;24.20;99.90
24836;DHT22;12915;57.650;12.044;2023-07-08T09:32:24;24.30;99.90
24836;DHT22;12915;57.650;12.044;2023-07-08T09:37:26;24.30;99.90
24836;DHT22;12915;57.650;12.044;2023-07-08T09:39:57;24.30;99.90
24836;DHT22;12915;57.650;12.044;2023-07-08T09:45:48;24.00;99.90
24836;DHT22;12915;57.650;12.044;2023-07-08T09:48:28;24.30;99.90
24836;DHT22;12915;57.650;12.044;2023-07-08T09:50:56;24.60;99.90
24836;DHT22;12915;57.650;12.044;2023-07-08T09:53:22;24.80;99.90
24836;DHT22;12915;57.650;12.044;2023-07-08T09:55:50;24.80;99.90
24836;DHT22;12915;57.650;12.044;2023-07-08T09:58:30;24.90;99.90
24836;DHT22;12915;57.650;12.044;2023-07-08T10:01:01;24.70;99.90
24836;DHT22;12915;57.650;12.044;2023-07-08T10:03:33;24.80;99.90
24836;DHT22;12915;57.650;12.044;2023-07-08T10:06:04;24.80;99.90
24836;DHT22;12915;57.650;12.044;2023-07-08T10:08:42;24.70;99.90
24836;DHT22;12915;57.650;12.044;2023-07-08T10:13:45;24.60;99.90
24836;DHT22;12915;57.650;12.044;2023-07-08T10:16:24;24.70;99.90
24836;DHT22;12915;57.650;12.044;2023-07-08T10:18:51;24.60;99.90
24836;DHT22;12915;57.650;12.044;2023-07-08T10:32:12;24.30;99.90
24836;DHT22;12915;57.650;12.044;2023-07-08T10:37:43;23.90;99.90
24836;DHT22;12915;57.650;12.044;2023-07-08T10:40:18;23.80;99.90
24836;DHT22;12915;57.650;12.044;2023-07-08T10:45:31;24.00;99.90
24836;DHT22;12915;57.650;12.044;2023-07-08T10:50:53;24.20;99.90
24836;DHT22;12915;57.650;12.044;2023-07-08T10:56:20;24.50;99.90
24836;DHT22;12915;57.650;12.044;2023-07-08T11:04:57;24.60;99.90
24836;DHT22;12915;57.650;12.044;2023-07-08T11:10:29;24.80;99.90
24836;DHT22;12915;57.650;12.044;2023-07-08T11:13:20;24.80;99.90
24836;DHT22;12915;57.650;12.044;2023-07-08T11:16:04;24.60;99.90
24836;DHT22;12915;57.650;12.044;2023-07-08T11:18:50;24.70;99.90
24836;DHT22;12915;57.650;12.044;2023-07-08T11:21:26;24.60;99.90
24836;DHT22;12915;57.650;12.044;2023-07-08T11:24:07;24.60;99.90
24836;DHT22;12915;57.650;12.044;2023-07-08T11:26:46;24.80;99.90
24836;DHT22;12915;57.650;12.044;2023-07-08T11:29:26;25.10;99.90
24836;DHT22;12915;57.650;12.044;2023-07-08T11:31:56;25.00;99.90
24836;DHT22;12915;57.650;12.044;2023-07-08T11:34:23;24.90;99.90
24836;DHT22;12915;57.650;12.044;2023-07-08T11:36:51;25.20;99.90
24836;DHT22;12915;57.650;12.044;2023-07-08T11:39:32;25.20;99.90
24836;DHT22;12915;57.650;12.044;2023-07-08T11:42:15;25.30;99.90
24836;DHT22;12915;57.650;12.044;2023-07-08T11:44:43;25.40;99.90
24836;DHT22;12915;57.650;12.044;2023-07-08T11:47:25;25.20;99.90
24836;DHT22;12915;57.650;12.044;2023-07-08T11:49:53;25.50;99.90
24836;DHT22;12915;57.650;12.044;2023-07-08T11:52:20;25.70;99.90
24836;DHT22;12915;57.650;12.044;2023-07-08T11:54:48;25.60;99.90
24836;DHT22;12915;57.650;12.044;2023-07-08T11:57:25;25.50;99.90
24836;DHT22;12915;57.650;12.044;2023-07-08T12:00:21;25.60;99.90
24836;DHT22;12915;57.650;12.044;2023-07-08T12:02:56;25.40;99.90
24836;DHT22;12915;57.650;12.044;2023-07-08T12:05:36;25.30;99.90
24836;DHT22;12915;57.650;12.044;2023-07-08T12:08:11;25.40;99.90
24836;DHT22;12915;57.650;12.044;2023-07-08T12:10:45;25.50;99.90
24836;DHT22;12915;57.650;12.044;2023-07-08T12:13:19;25.60;99.90
24836;DHT22;12915;57.650;12.044;2023-07-08T12:15:45;25.70;99.90
24836;DHT22;12915;57.650;12.044;2023-07-08T12:18:28;26.00;99.90
24836;DHT22;12915;57.650;12.044;2023-07-08T12:21:00;26.30;99.90
24836;DHT22;12915;57.650;12.044;2023-07-08T12:23:28;26.50;99.90
24836;DHT22;12915;57.650;12.044;2023-07-08T12:25:56;26.50;99.90
24836;DHT22;12915;57.650;12.044;2023-07-08T12:28:25;26.50;99.90
24836;DHT22;12915;57.650;12.044;2023-07-08T12:30:58;26.50;99.90
24836;DHT22;12915;57.650;12.044;2023-07-08T12:33:33;26.40;99.90
24836;DHT22;12915;57.650;12.044;2023-07-08T12:36:00;26.30;99.90
24836;DHT22;12915;57.650;12.044;2023-07-08T12:38:37;26.30;99.90
24836;DHT22;12915;57.650;12.044;2023-07-08T12:43:43;26.50;99.90
24836;DHT22;12915;57.650;12.044;2023-07-08T12:46:13;26.30;99.90
24836;DHT22;12915;57.650;12.044;2023-07-08T12:48:40;26.00;99.90
24836;DHT22;12915;57.650;12.044;2023-07-08T12:51:13;26.30;99.90
24836;DHT22;12915;57.650;12.044;2023-07-08T12:53:40;26.30;99.90
24836;DHT22;12915;57.650;12.044;2023-07-08T12:56:06;26.40;99.90
24836;DHT22;12915;57.650;12.044;2023-07-08T12:58:36;26.50;99.90
24836;DHT22;12915;57.650;12.044;2023-07-08T13:01:04;26.40;99.90
24836;DHT22;12915;57.650;12.044;2023-07-08T13:03:35;26.40;99.90
24836;DHT22;12915;57.650;12.044;2023-07-08T13:06:02;26.50;99.90
24836;DHT22;12915;57.650;12.044;2023-07-08T13:08:33;26.60;99.90
24836;DHT22;12915;57.650;12.044;2023-07-08T13:11:02;26.80;99.90
24836;DHT22;12915;57.650;12.044;2023-07-08T13:16:14;27.30;99.90
24836;DHT22;12915;57.650;12.044;2023-07-08T13:18:41;27.10;99.90
24836;DHT22;12915;57.650;12.044;2023-07-08T13:21:10;27.10;99.90
24836;DHT22;12915;57.650;12.044;2023-07-08T13:23:38;26.90;99.90
24836;DHT22;12915;57.650;12.044;2023-07-08T13:26:19;27.10;99.90
24836;DHT22;12915;57.650;12.044;2023-07-08T13:28:46;27.20;99.90
24836;DHT22;12915;57.650;12.044;2023-07-08T13:31:34;27.40;99.90
24836;DHT22;12915;57.650;12.044;2023-07-08T13:34:19;27.40;99.90
24836;DHT22;12915;57.650;12.044;2023-07-08T13:36:50;27.40;99.90
24836;DHT22;12915;57.650;12.044;2023-07-08T13:39:37;27.50;99.90
24836;DHT22;12915;57.650;12.044;2023-07-08T13:42:03;27.60;99.90
24836;DHT22;12915;57.650;12.044;2023-07-08T13:44:31;27.30;99.90
24836;DHT22;12915;57.650;12.044;2023-07-08T13:46:59;27.40;99.90
24836;DHT22;12915;57.650;12.044;2023-07-08T13:49:28;27.50;99.90
24836;DHT22;12915;57.650;12.044;2023-07-08T13:54:51;27.80;99.90
24836;DHT22;12915;57.650;12.044;2023-07-08T13:57:23;27.80;99.90
24836;DHT22;12915;57.650;12.044;2023-07-08T13:59:49;27.50;99.90
24836;DHT22;12915;57.650;12.044;2023-07-08T14:02:21;27.30;99.90
24836;DHT22;12915;57.650;12.044;2023-07-08T14:04:49;27.20;99.90
24836;DHT22;12915;57.650;12.044;2023-07-08T14:07:19;27.20;99.90
24836;DHT22;12915;57.650;12.044;2023-07-08T14:09:46;27.10;99.90
24836;DHT22;12915;57.650;12.044;2023-07-08T14:12:12;27.30;99.90
24836;DHT22;12915;57.650;12.044;2023-07-08T14:14:38;27.50;99.90
24836;DHT22;12915;57.650;12.044;2023-07-08T14:17:04;28.40;99.90
24836;DHT22;12915;57.650;12.044;2023-07-08T14:19:32;28.90;99.90
24836;DHT22;12915;57.650;12.044;2023-07-08T14:22:07;29.70;99.90
24836;DHT22;12915;57.650;12.044;2023-07-08T14:24:42;30.00;99.90
24836;DHT22;12915;57.650;12.044;2023-07-08T14:27:09;30.00;99.90
24836;DHT22;12915;57.650;12.044;2023-07-08T14:29:41;30.40;99.90
24836;DHT22;12915;57.650;12.044;2023-07-08T14:35:42;30.00;99.90
24836;DHT22;12915;57.650;12.044;2023-07-08T14:38:12;30.40;99.90
24836;DHT22;12915;57.650;12.044;2023-07-08T14:40:40;30.90;99.90
24836;DHT22;12915;57.650;12.044;2023-07-08T14:43:16;31.20;99.90
24836;DHT22;12915;57.650;12.044;2023-07-08T14:45:54;32.10;99.90
24836;DHT22;12915;57.650;12.044;2023-07-08T14:48:29;32.20;99.90
24836;DHT22;12915;57.650;12.044;2023-07-08T14:53:38;32.70;99.90
24836;DHT22;12915;57.650;12.044;2023-07-08T14:56:20;33.00;99.90
24836;DHT22;12915;57.650;12.044;2023-07-08T14:58:47;32.80;99.90
24836;DHT22;12915;57.650;12.044;2023-07-08T15:01:18;32.40;99.90
24836;DHT22;12915;57.650;12.044;2023-07-08T15:03:45;31.90;99.90
24836;DHT22;12915;57.650;12.044;2023-07-08T15:06:11;32.00;99.90
24836;DHT22;12915;57.650;12.044;2023-07-08T15:08:38;32.30;99.90
24836;DHT22;12915;57.650;12.044;2023-07-08T15:11:04;32.80;99.90
24836;DHT22;12915;57.650;12.044;2023-07-08T15:13:34;32.90;99.90
24836;DHT22;12915;57.650;12.044;2023-07-08T15:16:00;33.00;99.90
24836;DHT22;12915;57.650;12.044;2023-07-08T15:18:26;33.30;99.90
24836;DHT22;12915;57.650;12.044;2023-07-08T15:20:52;33.70;99.90
24836;DHT22;12915;57.650;12.044;2023-07-08T15:23:18;33.70;99.90
24836;DHT22;12915;57.650;12.044;2023-07-08T15:25:46;33.60;99.90
24836;DHT22;12915;57.650;12.044;2023-07-08T15:28:32;33.10;99.90
24836;DHT22;12915;57.650;12.044;2023-07-08T15:39:57;33.40;99.90
24836;DHT22;12915;57.650;12.044;2023-07-08T15:42:23;33.10;99.90
24836;DHT22;12915;57.650;12.044;2023-07-08T15:44:49;33.30;99.90
24836;DHT22;12915;57.650;12.044;2023-07-08T15:47:18;33.40;99.90
24836;DHT22;12915;57.650;12.044;2023-07-08T15:49:43;33.30;99.90
24836;DHT22;12915;57.650;12.044;2023-07-08T15:52:09;33.10;99.90
24836;DHT22;12915;57.650;12.044;2023-07-08T15:54:37;32.90;99.90
24836;DHT22;12915;57.650;12.044;2023-07-08T15:57:03;33.30;99.90
24836;DHT22;12915;57.650;12.044;2023-07-08T15:59:32;33.70;99.90
24836;DHT22;12915;57.650;12.044;2023-07-08T16:02:04;33.90;99.90
24836;DHT22;12915;57.650;12.044;2023-07-08T16:04:37;33.60;99.90
24836;DHT22;12915;57.650;12.044;2023-07-08T16:07:03;33.60;99.90
24836;DHT22;12915;57.650;12.044;2023-07-08T16:09:29;33.60;99.90
24836;DHT22;12915;57.650;12.044;2023-07-08T16:11:55;33.10;99.90
24836;DHT22;12915;57.650;12.044;2023-07-08T16:14:21;32.80;99.90
24836;DHT22;12915;57.650;12.044;2023-07-08T16:16:47;32.60;99.90
24836;DHT22;12915;57.650;12.044;2023-07-08T16:19:14;32.30;99.90
24836;DHT22;12915;57.650;12.044;2023-07-08T16:21:40;32.30;99.90
24836;DHT22;12915;57.650;12.044;2023-07-08T16:24:06;32.10;99.90
24836;DHT22;12915;57.650;12.044;2023-07-08T16:26:32;32.70;99.90
24836;DHT22;12915;57.650;12.044;2023-07-08T16:29:01;33.20;99.90
24836;DHT22;12915;57.650;12.044;2023-07-08T16:31:27;33.70;99.90
24836;DHT22;12915;57.650;12.044;2023-07-08T16:33:53;33.80;99.90
24836;DHT22;12915;57.650;12.044;2023-07-08T16:36:29;33.40;99.90
24836;DHT22;12915;57.650;12.044;2023-07-08T16:38:55;33.50;99.90
24836;DHT22;12915;57.650;12.044;2023-07-08T16:41:25;34.00;99.90
24836;DHT22;12915;57.650;12.044;2023-07-08T16:47:13;33.10;99.90
24836;DHT22;12915;57.650;12.044;2023-07-08T16:49:39;32.70;99.90
24836;DHT22;12915;57.650;12.044;2023-07-08T16:52:11;32.30;99.90